Time;durP1;ratioP1;P1;durP2;ratioP2;P2;SDS_P1;SDS_P2;PMS_P1;PMS_P2;Temp;Humidity;BMP_temperature;BMP_pressure;BME280_temperature;BME280_humidity;BME280_pressure;Samples;Min_cycle;Max_cycle;Signal;HPM_P1;HPM_P2
2023/10/16 04:02:29;;;;;;;;;;;5.10;99.90;;;;;;5118326;23;19976;-65
2023/10/16 04:04:58;;;;;;;;;;;5.00;99.90;;;;;;4975848;28;20359;-66
2023/10/16 04:07:23;;;;;;;;;;;4.90;99.90;;;;;;4976993;28;20380;-65
2023/10/16 04:09:49;;;;;;;;;;;4.90;99.90;;;;;;4977321;28;19910;-65
2023/10/16 04:12:20;;;;;;;;;;;4.80;99.90;;;;;;4975614;28;20443;-66
2023/10/16 04:14:50;;;;;;;;;;;4.70;99.90;;;;;;4998212;23;20320;-69
2023/10/16 04:17:16;;;;;;;;;;;4.50;99.90;;;;;;4977016;28;19911;-69
2023/10/16 04:19:59;;;;;;;;;;;4.50;99.90;;;;;;4977865;28;19917;-69
2023/10/16 04:22:25;;;;;;;;;;;4.50;99.90;;;;;;4975929;28;20380;-68
2023/10/16 04:25:01;;;;;;;;;;;4.50;99.90;;;;;;4977163;28;19910;-70
2023/10/16 04:27:32;;;;;;;;;;;4.60;99.90;;;;;;4976302;28;19914;-68
2023/10/16 04:32:39;;;;;;;;;;;4.50;99.90;;;;;;4977032;28;19980;-69
2023/10/16 04:35:29;;;;;;;;;;;4.50;99.90;;;;;;4976593;28;19961;-69
2023/10/16 04:37:55;;;;;;;;;;;4.50;99.90;;;;;;4975827;28;19961;-69
2023/10/16 04:43:09;;;;;;;;;;;4.40;99.90;;;;;;4976627;28;19917;-68
2023/10/16 04:45:59;;;;;;;;;;;4.30;99.90;;;;;;4976672;28;19911;-68
2023/10/16 04:48:47;;;;;;;;;;;4.30;99.90;;;;;;4976336;28;19929;-68
2023/10/16 04:51:16;;;;;;;;;;;4.20;99.90;;;;;;4963597;28;19918;-69
2023/10/16 04:53:58;;;;;;;;;;;4.10;99.90;;;;;;4957247;28;19993;-69
2023/10/16 04:59:37;;;;;;;;;;;4.20;99.90;;;;;;4956851;29;19918;-69
2023/10/16 05:02:16;;;;;;;;;;;4.10;99.90;;;;;;4956626;28;19921;-69
2023/10/16 05:07:46;;;;;;;;;;;4.00;99.90;;;;;;4957208;29;20344;-67
2023/10/16 05:10:12;;;;;;;;;;;4.00;99.90;;;;;;4955986;28;20001;-68
2023/10/16 05:15:41;;;;;;;;;;;3.90;99.90;;;;;;4956642;29;19922;-69
2023/10/16 05:18:20;;;;;;;;;;;3.80;99.90;;;;;;4953786;28;19921;-67
2023/10/16 06:15:49;;;;;;;;;;;3.80;99.90;;;;;;4974697;28;20363;-67
2023/10/16 06:18:15;;;;;;;;;;;3.80;99.90;;;;;;4974721;28;19910;-67
2023/10/16 06:20:43;;;;;;;;;;;3.80;99.90;;;;;;4974234;28;20365;-69
2023/10/16 06:23:10;;;;;;;;;;;3.60;99.90;;;;;;4973077;28;20377;-67
2023/10/16 06:25:37;;;;;;;;;;;3.60;99.90;;;;;;4974627;28;19917;-67
2023/10/16 06:28:08;;;;;;;;;;;3.50;99.90;;;;;;4974458;28;19992;-67
2023/10/16 06:30:37;;;;;;;;;;;3.60;99.90;;;;;;4974794;28;19918;-67
2023/10/16 06:33:04;;;;;;;;;;;3.50;99.90;;;;;;4974744;28;19981;-68
2023/10/16 06:35:30;;;;;;;;;;;3.50;99.90;;;;;;4975031;28;20377;-66
2023/10/16 06:37:56;;;;;;;;;;;3.40;99.90;;;;;;4977311;28;19911;-67
2023/10/16 06:40:27;;;;;;;;;;;3.50;99.90;;;;;;4977890;28;20384;-67
2023/10/16 06:43:11;;;;;;;;;;;3.60;99.90;;;;;;4973968;28;19910;-66
2023/10/16 06:45:55;;;;;;;;;;;3.60;99.90;;;;;;4953422;29;20084;-67
2023/10/16 06:48:21;;;;;;;;;;;3.60;99.90;;;;;;4955026;28;19910;-68
2023/10/16 06:51:08;;;;;;;;;;;3.70;99.90;;;;;;4954861;28;19938;-67
2023/10/16 06:53:34;;;;;;;;;;;3.80;99.90;;;;;;4948005;28;19918;-67
2023/10/16 06:55:59;;;;;;;;;;;3.80;99.90;;;;;;4934214;29;19911;-67
2023/10/16 06:58:26;;;;;;;;;;;3.90;99.90;;;;;;4932517;29;19966;-67
2023/10/16 07:00:52;;;;;;;;;;;4.00;99.90;;;;;;4939074;29;20350;-67
2023/10/16 07:03:17;;;;;;;;;;;4.00;99.90;;;;;;4938916;29;19918;-67
2023/10/16 07:05:43;;;;;;;;;;;4.00;99.90;;;;;;4939849;29;19918;-67
2023/10/16 07:08:16;;;;;;;;;;;4.10;99.90;;;;;;4939254;29;20349;-66
2023/10/16 07:10:56;;;;;;;;;;;4.20;99.90;;;;;;4939538;29;19911;-68
2023/10/16 07:13:28;;;;;;;;;;;4.20;99.90;;;;;;4944245;29;20022;-67
2023/10/16 07:15:59;;;;;;;;;;;4.30;99.90;;;;;;4958778;28;19918;-67
2023/10/16 07:18:25;;;;;;;;;;;4.30;99.90;;;;;;4958384;28;20404;-66
2023/10/16 07:20:53;;;;;;;;;;;4.40;99.90;;;;;;4958191;28;19914;-67
2023/10/16 07:23:20;;;;;;;;;;;4.40;99.90;;;;;;4956796;28;19980;-66
2023/10/16 07:25:54;;;;;;;;;;;4.50;99.90;;;;;;4958347;28;19918;-66
2023/10/16 07:28:20;;;;;;;;;;;4.60;99.90;;;;;;4958304;28;19911;-67
2023/10/16 07:30:45;;;;;;;;;;;4.70;99.90;;;;;;4958003;28;19990;-67
2023/10/16 07:33:14;;;;;;;;;;;4.70;99.90;;;;;;4957812;28;20281;-67
2023/10/16 07:35:41;;;;;;;;;;;4.80;99.90;;;;;;4957926;28;19915;-67
2023/10/16 07:38:09;;;;;;;;;;;4.90;99.90;;;;;;4957777;28;19987;-67
2023/10/16 07:40:37;;;;;;;;;;;5.10;99.90;;;;;;4957750;28;19922;-66
2023/10/16 07:43:03;;;;;;;;;;;5.20;99.90;;;;;;4960400;28;19914;-68
2023/10/16 07:45:32;;;;;;;;;;;5.30;99.90;;;;;;4977137;28;20379;-65
2023/10/16 07:48:07;;;;;;;;;;;5.30;99.90;;;;;;4977104;28;19992;-67
2023/10/16 07:50:41;;;;;;;;;;;5.40;99.90;;;;;;4977245;28;19910;-67
2023/10/16 07:53:08;;;;;;;;;;;5.60;99.90;;;;;;4977129;28;19992;-67
2023/10/16 07:55:40;;;;;;;;;;;5.80;99.90;;;;;;4976945;28;20004;-68
2023/10/16 07:58:15;;;;;;;;;;;6.00;99.90;;;;;;4977332;28;20366;-67
2023/10/16 08:00:43;;;;;;;;;;;6.20;99.90;;;;;;4976715;28;20008;-67
2023/10/16 08:03:13;;;;;;;;;;;6.40;99.90;;;;;;4977025;28;19910;-66
2023/10/16 08:05:47;;;;;;;;;;;6.50;99.90;;;;;;4977026;28;19910;-67
2023/10/16 08:08:25;;;;;;;;;;;6.70;99.90;;;;;;4976830;28;19910;-67
2023/10/16 08:10:52;;;;;;;;;;;6.90;99.90;;;;;;4976443;28;20001;-66
2023/10/16 08:13:18;;;;;;;;;;;6.90;99.90;;;;;;4976440;28;19922;-66
2023/10/16 08:15:51;;;;;;;;;;;7.10;99.90;;;;;;4975152;28;19946;-66
2023/10/16 08:18:18;;;;;;;;;;;7.20;99.90;;;;;;4976920;28;19979;-68
2023/10/16 08:21:00;;;;;;;;;;;7.30;99.90;;;;;;4976478;28;20377;-67
2023/10/16 08:23:31;;;;;;;;;;;7.40;99.90;;;;;;4976946;28;20436;-66
2023/10/16 08:26:00;;;;;;;;;;;7.60;99.90;;;;;;4977055;28;19910;-66
2023/10/16 08:28:35;;;;;;;;;;;7.50;99.90;;;;;;4976579;28;19911;-66
2023/10/16 08:31:10;;;;;;;;;;;7.60;99.90;;;;;;4976539;28;19914;-66
2023/10/16 08:33:36;;;;;;;;;;;7.70;99.90;;;;;;4977592;28;20254;-67
2023/10/16 08:36:04;;;;;;;;;;;7.70;99.90;;;;;;4976629;28;19929;-67
2023/10/16 08:38:32;;;;;;;;;;;7.70;99.90;;;;;;4976341;28;20005;-68
2023/10/16 08:41:07;;;;;;;;;;;7.80;99.90;;;;;;4976652;28;19921;-67
2023/10/16 08:43:54;;;;;;;;;;;8.00;99.90;;;;;;4975467;28;21581;-67
2023/10/16 08:46:24;;;;;;;;;;;8.10;99.90;;;;;;4976587;28;19924;-67
2023/10/16 08:48:52;;;;;;;;;;;8.20;99.90;;;;;;4976197;28;19948;-67
2023/10/16 08:51:18;;;;;;;;;;;8.20;99.90;;;;;;4976272;28;19917;-68
2023/10/16 08:53:44;;;;;;;;;;;8.20;99.90;;;;;;4976097;28;20361;-69
2023/10/16 08:56:12;;;;;;;;;;;8.40;99.90;;;;;;4976611;28;19961;-68
2023/10/16 08:58:41;;;;;;;;;;;8.50;99.90;;;;;;4975853;28;20365;-66
2023/10/16 09:01:11;;;;;;;;;;;8.60;99.90;;;;;;4974848;28;19914;-67
2023/10/16 09:03:44;;;;;;;;;;;8.50;99.90;;;;;;4975967;28;20005;-67
2023/10/16 09:06:13;;;;;;;;;;;8.60;99.90;;;;;;4976048;28;19953;-67
2023/10/16 09:08:41;;;;;;;;;;;8.70;99.90;;;;;;4975977;28;20373;-69
2023/10/16 09:11:07;;;;;;;;;;;8.90;99.90;;;;;;4975916;28;19910;-66
2023/10/16 09:13:36;;;;;;;;;;;9.20;99.90;;;;;;4974454;28;20017;-67
2023/10/16 09:16:02;;;;;;;;;;;9.40;99.90;;;;;;4976066;28;19964;-67
2023/10/16 09:18:28;;;;;;;;;;;9.50;99.90;;;;;;4976215;28;19917;-66
2023/10/16 09:21:00;;;;;;;;;;;9.60;99.90;;;;;;4976103;28;19914;-67
2023/10/16 09:23:36;;;;;;;;;;;9.50;99.90;;;;;;4975095;28;19954;-67
2023/10/16 09:26:02;;;;;;;;;;;9.90;99.90;;;;;;4976512;28;20348;-67
2023/10/16 09:28:32;;;;;;;;;;;10.40;99.90;;;;;;4976517;28;20368;-66
2023/10/16 09:31:01;;;;;;;;;;;10.70;99.90;;;;;;4975512;28;20012;-67
2023/10/16 09:33:27;;;;;;;;;;;10.60;99.90;;;;;;4976215;28;19918;-67
2023/10/16 09:36:00;;;;;;;;;;;10.50;99.90;;;;;;4975906;28;19910;-68
2023/10/16 09:38:32;;;;;;;;;;;10.50;99.90;;;;;;4976216;28;19910;-67
2023/10/16 09:49:13;;;;;;;;;;;11.20;99.90;;;;;;4976344;28;20350;-67
2023/10/16 09:51:44;;;;;;;;;;;11.40;99.90;;;;;;4975317;28;20061;-66
2023/10/16 09:54:10;;;;;;;;;;;11.80;99.90;;;;;;4975163;28;19917;-66
2023/10/16 09:56:39;;;;;;;;;;;12.20;99.90;;;;;;4975002;28;19910;-67
2023/10/16 09:59:09;;;;;;;;;;;13.30;99.90;;;;;;4973412;28;19953;-67
2023/10/16 10:01:44;;;;;;;;;;;14.40;99.90;;;;;;4975018;28;19922;-67
2023/10/16 10:04:11;;;;;;;;;;;15.60;97.80;;;;;;4974917;28;19910;-67
2023/10/16 10:06:39;;;;;;;;;;;16.90;95.40;;;;;;4975137;28;19953;-67
2023/10/16 10:12:13;;;;;;;;;;;19.90;91.10;;;;;;4974995;28;19910;-67
2023/10/16 10:14:46;;;;;;;;;;;20.40;89.10;;;;;;4974923;28;19972;-63
2023/10/16 10:17:19;;;;;;;;;;;21.40;85.00;;;;;;4975153;28;19914;-63
2023/10/16 10:19:46;;;;;;;;;;;20.70;83.80;;;;;;4975240;28;19910;-62
2023/10/16 10:22:32;;;;;;;;;;;20.10;84.60;;;;;;4974592;28;19961;-63
2023/10/16 10:25:17;;;;;;;;;;;20.50;84.20;;;;;;4974846;28;20104;-63
2023/10/16 10:27:43;;;;;;;;;;;20.80;82.70;;;;;;4975687;28;20342;-64
2023/10/16 10:30:17;;;;;;;;;;;21.00;83.50;;;;;;4975361;28;19910;-62
2023/10/16 10:32:52;;;;;;;;;;;21.70;81.80;;;;;;4976367;28;19911;-62
2023/10/16 10:35:21;;;;;;;;;;;21.80;78.60;;;;;;4979066;28;20284;-63
2023/10/16 10:37:48;;;;;;;;;;;21.50;79.60;;;;;;4979119;28;19918;-63
2023/10/16 10:40:24;;;;;;;;;;;21.20;79.70;;;;;;4977644;28;19966;-63
2023/10/16 10:42:54;;;;;;;;;;;21.40;79.80;;;;;;4978987;28;19911;-63
2023/10/16 10:45:33;;;;;;;;;;;22.30;77.90;;;;;;4978790;28;19910;-64
2023/10/16 10:48:12;;;;;;;;;;;22.00;76.90;;;;;;4978601;28;19910;-64
2023/10/16 10:50:38;;;;;;;;;;;20.80;78.10;;;;;;4978677;28;19937;-64
2023/10/16 10:53:13;;;;;;;;;;;18.40;80.70;;;;;;4978794;28;19911;-62
2023/10/16 10:55:54;;;;;;;;;;;16.60;85.40;;;;;;4979282;28;20320;-63
2023/10/16 10:58:23;;;;;;;;;;;15.10;89.70;;;;;;4977357;28;19910;-63
2023/10/16 11:00:50;;;;;;;;;;;14.20;91.10;;;;;;4978087;28;19914;-64
2023/10/16 11:03:33;;;;;;;;;;;13.50;92.20;;;;;;4977776;28;19910;-62
2023/10/16 11:05:58;;;;;;;;;;;13.10;93.10;;;;;;4978834;28;19977;-63
2023/10/16 11:08:29;;;;;;;;;;;12.70;93.80;;;;;;4978437;28;20373;-63
2023/10/16 11:10:56;;;;;;;;;;;12.40;94.30;;;;;;4978883;28;19964;-62
2023/10/16 11:13:22;;;;;;;;;;;12.40;94.50;;;;;;4977404;28;19922;-63
2023/10/16 11:15:52;;;;;;;;;;;12.40;94.80;;;;;;4978316;28;19921;-63
2023/10/16 11:18:20;;;;;;;;;;;12.40;94.30;;;;;;4978602;28;19914;-61
2023/10/16 11:20:48;;;;;;;;;;;12.40;94.40;;;;;;4978001;28;20512;-62
2023/10/16 11:23:14;;;;;;;;;;;12.30;94.60;;;;;;4976935;28;19915;-63
2023/10/16 11:25:44;;;;;;;;;;;12.40;94.90;;;;;;4978434;28;19910;-65
2023/10/16 11:28:11;;;;;;;;;;;12.40;94.50;;;;;;4978012;28;20002;-62
2023/10/16 11:30:38;;;;;;;;;;;12.30;94.60;;;;;;4977793;28;19939;-62
2023/10/16 11:33:04;;;;;;;;;;;12.30;94.80;;;;;;4977906;28;19918;-62
2023/10/16 11:35:34;;;;;;;;;;;12.20;95.20;;;;;;4976934;28;19917;-63
2023/10/16 11:37:59;;;;;;;;;;;12.20;95.30;;;;;;4977833;28;20385;-67
2023/10/16 11:40:39;;;;;;;;;;;12.10;95.50;;;;;;4977789;28;19910;-65
2023/10/16 11:43:07;;;;;;;;;;;12.10;95.50;;;;;;4978028;28;20273;-64
2023/10/16 11:45:33;;;;;;;;;;;12.10;95.40;;;;;;4977119;28;20001;-63
2023/10/16 11:50:50;;;;;;;;;;;12.10;95.80;;;;;;4978050;28;19965;-61
2023/10/16 11:53:23;;;;;;;;;;;12.20;95.20;;;;;;4977765;28;19911;-64
2023/10/16 11:55:50;;;;;;;;;;;12.30;95.40;;;;;;4978000;28;19914;-64
2023/10/16 12:01:18;;;;;;;;;;;12.40;95.00;;;;;;4977055;28;20288;-65
2023/10/16 12:03:43;;;;;;;;;;;12.40;95.10;;;;;;4977514;28;19910;-65
2023/10/16 12:06:12;;;;;;;;;;;12.50;94.50;;;;;;4976072;28;20317;-65
2023/10/16 12:08:40;;;;;;;;;;;12.40;94.30;;;;;;4977549;28;19965;-67
2023/10/16 12:11:07;;;;;;;;;;;12.30;94.40;;;;;;4977013;28;20361;-64
2023/10/16 12:13:32;;;;;;;;;;;12.40;94.60;;;;;;4970116;28;19918;-65
2023/10/16 12:15:58;;;;;;;;;;;12.40;94.50;;;;;;4957624;28;19914;-66
2023/10/16 12:18:28;;;;;;;;;;;12.40;94.40;;;;;;4957785;28;19910;-65
2023/10/16 12:20:54;;;;;;;;;;;12.40;94.30;;;;;;4957398;28;20396;-65
2023/10/16 12:23:23;;;;;;;;;;;12.50;94.00;;;;;;4957483;28;19910;-66
2023/10/16 12:25:49;;;;;;;;;;;12.60;94.10;;;;;;4957763;28;19911;-63
2023/10/16 12:28:14;;;;;;;;;;;12.70;93.90;;;;;;4955018;28;19930;-64
2023/10/16 12:30:40;;;;;;;;;;;12.70;93.80;;;;;;4948436;28;20305;-62
2023/10/16 12:33:08;;;;;;;;;;;12.70;93.40;;;;;;4947704;28;19973;-64
2023/10/16 12:35:34;;;;;;;;;;;12.70;92.80;;;;;;4938488;29;19915;-63
2023/10/16 12:38:04;;;;;;;;;;;12.60;93.00;;;;;;4938150;29;20393;-62
2023/10/16 12:40:37;;;;;;;;;;;12.70;92.80;;;;;;4939185;29;19961;-64
2023/10/16 12:43:05;;;;;;;;;;;12.80;92.90;;;;;;4944462;28;19914;-61
2023/10/16 12:45:32;;;;;;;;;;;12.80;92.70;;;;;;4976288;28;19917;-63
2023/10/16 12:47:57;;;;;;;;;;;12.90;92.20;;;;;;4976686;28;19957;-62
2023/10/16 12:50:27;;;;;;;;;;;12.90;91.70;;;;;;4977723;28;19910;-63
2023/10/16 12:53:00;;;;;;;;;;;12.90;91.00;;;;;;4978296;28;19914;-65
2023/10/16 12:55:26;;;;;;;;;;;12.90;91.00;;;;;;4974999;28;19914;-65
2023/10/16 12:57:52;;;;;;;;;;;12.90;91.00;;;;;;4947813;29;19946;-65
2023/10/16 13:00:19;;;;;;;;;;;13.00;91.00;;;;;;4956883;28;19997;-63
2023/10/16 13:02:51;;;;;;;;;;;12.90;91.20;;;;;;4950129;28;20009;-63
2023/10/16 13:05:17;;;;;;;;;;;13.00;91.10;;;;;;4948341;28;19911;-64
2023/10/16 13:07:43;;;;;;;;;;;13.00;90.80;;;;;;4949368;29;20394;-63
2023/10/16 13:10:16;;;;;;;;;;;13.00;91.00;;;;;;4941090;28;19918;-63
2023/10/16 13:12:44;;;;;;;;;;;12.90;91.00;;;;;;4952728;28;19969;-64
2023/10/16 13:15:11;;;;;;;;;;;13.00;91.40;;;;;;4945217;29;20278;-62
2023/10/16 13:17:37;;;;;;;;;;;13.00;91.00;;;;;;4949856;29;19933;-62
2023/10/16 13:20:04;;;;;;;;;;;13.00;90.90;;;;;;4942778;28;20290;-63
2023/10/16 13:22:31;;;;;;;;;;;13.00;90.80;;;;;;4953131;28;19918;-63
2023/10/16 13:24:56;;;;;;;;;;;13.00;90.90;;;;;;4956591;28;20410;-65
2023/10/16 13:27:22;;;;;;;;;;;13.00;90.80;;;;;;4953258;28;19915;-64
2023/10/16 13:29:47;;;;;;;;;;;13.20;90.60;;;;;;4955929;28;19915;-63
2023/10/16 13:32:13;;;;;;;;;;;13.20;90.30;;;;;;4956269;28;20262;-65
2023/10/16 13:34:38;;;;;;;;;;;13.20;90.20;;;;;;4956250;28;19918;-63
2023/10/16 13:37:10;;;;;;;;;;;13.20;87.90;;;;;;4954906;28;19910;-64
2023/10/16 13:39:41;;;;;;;;;;;13.20;87.90;;;;;;4956532;28;20421;-63
2023/10/16 13:45:12;;;;;;;;;;;13.20;87.00;;;;;;4937057;29;19918;-63
2023/10/16 13:47:42;;;;;;;;;;;13.20;88.20;;;;;;4936836;29;19914;-63
2023/10/16 13:50:18;;;;;;;;;;;13.20;89.40;;;;;;4944499;29;19918;-62
2023/10/16 13:52:44;;;;;;;;;;;13.30;90.50;;;;;;4954886;28;19914;-63
2023/10/16 13:55:19;;;;;;;;;;;13.20;90.80;;;;;;4956088;28;20337;-63
2023/10/16 13:57:47;;;;;;;;;;;13.20;90.90;;;;;;4956277;28;19917;-65
2023/10/16 14:00:31;;;;;;;;;;;13.20;91.00;;;;;;4955612;28;19961;-63
2023/10/16 14:03:09;;;;;;;;;;;13.20;91.10;;;;;;4956441;28;20389;-63
2023/10/16 14:05:41;;;;;;;;;;;13.20;91.30;;;;;;4956089;28;20001;-65
2023/10/16 14:08:09;;;;;;;;;;;13.10;91.40;;;;;;4956106;28;19911;-65
2023/10/16 14:10:39;;;;;;;;;;;13.00;91.60;;;;;;4956260;28;19986;-65
2023/10/16 14:13:11;;;;;;;;;;;13.00;91.60;;;;;;4956222;28;19922;-60
2023/10/16 14:15:41;;;;;;;;;;;12.90;92.00;;;;;;4956274;28;19915;-60
2023/10/16 14:18:13;;;;;;;;;;;12.90;92.20;;;;;;4956301;28;19918;-63
2023/10/16 14:20:39;;;;;;;;;;;12.90;92.40;;;;;;4956449;28;19925;-63
2023/10/16 14:23:10;;;;;;;;;;;12.90;92.70;;;;;;4956796;28;19914;-61
2023/10/16 14:25:41;;;;;;;;;;;12.90;92.50;;;;;;4958398;28;19912;-61
2023/10/16 14:28:53;;;;;;;;;;;12.90;92.70;;;;;;4957892;28;19914;-62
2023/10/16 14:31:00;;;;;;;;;;;12.90;92.60;;;;;;4953757;29;19937;-62
2023/10/16 14:33:28;;;;;;;;;;;12.90;92.50;;;;;;4957006;28;20000;-63
2023/10/16 14:35:57;;;;;;;;;;;12.80;92.90;;;;;;4956063;28;19911;-62
2023/10/16 14:38:26;;;;;;;;;;;12.80;93.00;;;;;;4955619;28;19911;-60
2023/10/16 14:40:55;;;;;;;;;;;12.70;93.00;;;;;;4954037;28;19922;-58
2023/10/16 14:43:21;;;;;;;;;;;12.70;93.10;;;;;;4960410;28;19921;-65
2023/10/16 14:45:47;;;;;;;;;;;12.70;93.20;;;;;;4974227;28;19917;-60
2023/10/16 14:48:15;;;;;;;;;;;12.70;93.20;;;;;;4974541;28;19964;-59
2023/10/16 14:50:42;;;;;;;;;;;12.70;93.20;;;;;;4974399;28;19910;-59
2023/10/16 14:53:09;;;;;;;;;;;12.70;93.20;;;;;;4974393;28;20324;-64
2023/10/16 14:55:35;;;;;;;;;;;12.70;93.30;;;;;;4974541;28;19976;-66
2023/10/16 14:58:01;;;;;;;;;;;12.70;93.20;;;;;;4975010;28;20365;-65
2023/10/16 15:01:15;;;;;;;;;;;12.70;93.10;;;;;;4974283;28;19963;-65
2023/10/16 15:03:13;;;;;;;;;;;12.70;93.10;;;;;;4970532;28;20397;-66
2023/10/16 15:05:39;;;;;;;;;;;12.60;93.00;;;;;;4974692;28;19911;-65
2023/10/16 15:08:19;;;;;;;;;;;12.60;92.90;;;;;;4975427;28;19910;-67
2023/10/16 15:10:45;;;;;;;;;;;12.60;92.90;;;;;;4975075;28;19937;-66
2023/10/16 15:13:15;;;;;;;;;;;12.60;92.90;;;;;;4974256;28;20008;-65
2023/10/16 15:15:41;;;;;;;;;;;12.50;92.70;;;;;;4974217;28;19917;-67
2023/10/16 15:18:08;;;;;;;;;;;12.50;92.80;;;;;;4974502;28;19914;-68
2023/10/16 15:20:33;;;;;;;;;;;12.50;92.90;;;;;;4973916;28;20005;-70
2023/10/16 15:23:00;;;;;;;;;;;12.50;92.70;;;;;;4977874;28;20373;-68
2023/10/16 15:25:25;;;;;;;;;;;12.50;92.60;;;;;;4977005;28;20324;-70
2023/10/16 15:27:50;;;;;;;;;;;12.40;92.50;;;;;;4978295;28;19910;-68
2023/10/16 15:30:18;;;;;;;;;;;12.40;92.40;;;;;;4977981;28;19914;-67
2023/10/16 15:32:43;;;;;;;;;;;12.50;92.40;;;;;;4978678;28;19914;-67
2023/10/16 15:35:09;;;;;;;;;;;12.40;92.50;;;;;;4979152;28;19910;-67
2023/10/16 15:37:38;;;;;;;;;;;12.40;92.40;;;;;;4978399;28;19910;-67
2023/10/16 15:40:04;;;;;;;;;;;12.30;92.40;;;;;;4978313;28;19996;-66
2023/10/16 15:42:29;;;;;;;;;;;12.30;92.50;;;;;;4977917;28;20424;-67
2023/10/16 15:44:55;;;;;;;;;;;12.30;92.50;;;;;;4977340;28;19910;-68
2023/10/16 15:47:23;;;;;;;;;;;12.30;92.60;;;;;;4977652;28;19918;-68
2023/10/16 15:49:49;;;;;;;;;;;12.30;92.80;;;;;;4977789;28;19917;-68
2023/10/16 15:52:14;;;;;;;;;;;12.30;92.80;;;;;;4979298;28;19918;-68
2023/10/16 15:54:42;;;;;;;;;;;12.20;92.80;;;;;;4980225;28;19914;-67
2023/10/16 15:57:07;;;;;;;;;;;12.20;93.00;;;;;;4976755;28;20348;-66
2023/10/16 15:59:34;;;;;;;;;;;12.10;93.00;;;;;;4977551;28;19910;-66
2023/10/16 16:01:59;;;;;;;;;;;12.20;93.10;;;;;;4976758;28;19930;-66
2023/10/16 16:04:26;;;;;;;;;;;12.20;93.30;;;;;;4977529;28;19965;-66
2023/10/16 16:06:51;;;;;;;;;;;12.10;93.30;;;;;;4977264;28;19910;-64
2023/10/16 16:09:19;;;;;;;;;;;12.10;93.40;;;;;;4977087;28;20433;-60
2023/10/16 16:11:44;;;;;;;;;;;12.00;93.60;;;;;;4977350;28;19917;-62
2023/10/16 16:14:13;;;;;;;;;;;12.00;93.60;;;;;;4976717;28;19918;-61
2023/10/16 16:16:41;;;;;;;;;;;12.00;93.80;;;;;;4977046;28;19918;-62
2023/10/16 16:19:07;;;;;;;;;;;11.90;93.90;;;;;;4976920;28;20009;-61
2023/10/16 16:21:32;;;;;;;;;;;11.80;94.10;;;;;;4978106;28;20012;-62
2023/10/16 16:24:01;;;;;;;;;;;11.80;94.10;;;;;;4977792;28;20294;-60
2023/10/16 16:26:27;;;;;;;;;;;11.80;94.30;;;;;;4975536;28;19910;-60
2023/10/16 16:28:52;;;;;;;;;;;11.70;94.30;;;;;;4977074;28;20003;-61
2023/10/16 16:31:20;;;;;;;;;;;11.70;94.50;;;;;;4976495;28;19911;-63
2023/10/16 16:33:45;;;;;;;;;;;11.70;94.60;;;;;;4976992;28;20006;-61
2023/10/16 16:36:14;;;;;;;;;;;11.60;94.70;;;;;;4977418;28;19954;-61
2023/10/16 16:38:39;;;;;;;;;;;11.60;94.70;;;;;;4976812;28;19910;-61
2023/10/16 16:41:05;;;;;;;;;;;11.50;94.90;;;;;;4976487;28;20334;-60
2023/10/16 16:43:31;;;;;;;;;;;11.50;95.00;;;;;;4976484;28;20293;-62
2023/10/16 16:45:56;;;;;;;;;;;11.40;95.40;;;;;;4976324;28;20313;-62
2023/10/16 16:48:22;;;;;;;;;;;11.40;95.20;;;;;;4976722;28;19911;-61
2023/10/16 16:50:47;;;;;;;;;;;11.40;95.40;;;;;;4976372;28;19914;-61
2023/10/16 16:53:13;;;;;;;;;;;11.30;95.90;;;;;;4976607;28;19910;-62
2023/10/16 16:55:38;;;;;;;;;;;11.20;95.60;;;;;;4974728;28;19933;-66
2023/10/16 16:58:04;;;;;;;;;;;11.20;95.70;;;;;;4976043;28;19918;-67
2023/10/16 17:00:31;;;;;;;;;;;11.30;95.60;;;;;;4975757;28;19917;-63
2023/10/16 17:02:59;;;;;;;;;;;11.30;95.70;;;;;;4976700;28;19914;-62
2023/10/16 17:05:25;;;;;;;;;;;11.20;95.80;;;;;;4976857;28;19910;-65
2023/10/16 17:07:54;;;;;;;;;;;11.20;96.00;;;;;;4976455;28;19964;-66
2023/10/16 17:10:27;;;;;;;;;;;11.10;96.20;;;;;;4975119;28;19916;-64
2023/10/16 17:12:54;;;;;;;;;;;11.10;96.10;;;;;;4974525;28;19911;-64
2023/10/16 17:15:23;;;;;;;;;;;11.10;96.40;;;;;;4956887;28;19922;-65
2023/10/16 17:17:51;;;;;;;;;;;11.00;96.40;;;;;;4956750;28;19997;-65
2023/10/16 17:20:16;;;;;;;;;;;11.00;96.70;;;;;;4956982;28;19917;-64
2023/10/16 17:22:42;;;;;;;;;;;10.90;96.70;;;;;;4955520;28;20285;-64
2023/10/16 17:25:08;;;;;;;;;;;10.90;96.80;;;;;;4955331;29;19921;-65
2023/10/16 17:27:33;;;;;;;;;;;10.80;96.90;;;;;;4956182;28;19934;-63
2023/10/16 17:29:59;;;;;;;;;;;10.80;97.30;;;;;;4956039;28;19911;-65
2023/10/16 17:32:24;;;;;;;;;;;10.70;97.40;;;;;;4955874;28;19997;-64
2023/10/16 17:34:50;;;;;;;;;;;10.70;97.60;;;;;;4955257;28;19910;-64
2023/10/16 17:37:16;;;;;;;;;;;10.60;97.70;;;;;;4956585;28;19910;-62
2023/10/16 17:39:45;;;;;;;;;;;10.60;97.90;;;;;;4956966;28;20289;-64
2023/10/16 17:42:12;;;;;;;;;;;10.60;97.80;;;;;;4956388;28;19966;-65
2023/10/16 17:44:38;;;;;;;;;;;10.70;98.10;;;;;;4970994;28;20340;-60
2023/10/16 17:47:03;;;;;;;;;;;10.70;97.90;;;;;;4975148;28;19910;-63
2023/10/16 17:49:29;;;;;;;;;;;10.60;98.00;;;;;;4975508;28;19918;-63
2023/10/16 17:51:54;;;;;;;;;;;10.50;98.10;;;;;;4975454;28;20362;-64
2023/10/16 17:54:20;;;;;;;;;;;10.50;98.20;;;;;;4976064;28;19910;-62
2023/10/16 17:56:45;;;;;;;;;;;10.50;98.30;;;;;;4974967;28;19910;-63
2023/10/16 17:59:11;;;;;;;;;;;10.40;98.40;;;;;;4974932;28;19973;-63
2023/10/16 18:01:37;;;;;;;;;;;10.30;98.40;;;;;;4975176;28;20388;-63
2023/10/16 18:04:05;;;;;;;;;;;10.40;98.60;;;;;;4975391;28;19910;-65
2023/10/16 18:06:32;;;;;;;;;;;10.30;98.60;;;;;;4976386;28;20288;-64
2023/10/16 18:08:58;;;;;;;;;;;10.30;98.80;;;;;;4975776;28;20028;-65
2023/10/16 18:11:24;;;;;;;;;;;10.20;98.90;;;;;;4975289;28;19910;-63
2023/10/16 18:13:50;;;;;;;;;;;10.20;98.90;;;;;;4974935;28;19988;-64
2023/10/16 18:16:15;;;;;;;;;;;10.20;98.90;;;;;;4975012;28;20377;-62
2023/10/16 18:18:41;;;;;;;;;;;10.20;99.00;;;;;;4974993;28;20431;-65
2023/10/16 18:21:06;;;;;;;;;;;10.20;98.90;;;;;;4975566;28;19921;-62
2023/10/16 18:23:32;;;;;;;;;;;10.20;99.00;;;;;;4975314;28;19985;-62
2023/10/16 18:25:58;;;;;;;;;;;10.20;99.10;;;;;;4975184;28;19914;-64
2023/10/16 18:28:23;;;;;;;;;;;10.20;99.20;;;;;;4975044;28;19957;-64
2023/10/16 18:30:49;;;;;;;;;;;10.20;99.20;;;;;;4974830;28;19961;-65
2023/10/16 18:33:14;;;;;;;;;;;10.10;99.30;;;;;;4974765;28;19910;-63
2023/10/16 18:35:41;;;;;;;;;;;10.20;99.40;;;;;;4973424;28;19917;-64
2023/10/16 18:38:10;;;;;;;;;;;10.10;99.50;;;;;;4974498;28;19910;-63
2023/10/16 18:40:38;;;;;;;;;;;10.00;99.60;;;;;;4974764;28;20370;-64
2023/10/16 18:43:11;;;;;;;;;;;9.90;99.80;;;;;;4974346;28;19992;-64
2023/10/16 18:45:38;;;;;;;;;;;9.90;99.80;;;;;;4974423;28;20420;-64
2023/10/16 18:48:04;;;;;;;;;;;10.00;99.90;;;;;;4974821;28;19946;-64
2023/10/16 18:50:30;;;;;;;;;;;9.90;99.90;;;;;;4974877;28;19973;-63
2023/10/16 18:52:55;;;;;;;;;;;9.90;99.90;;;;;;4974765;28;20000;-62
2023/10/16 18:55:21;;;;;;;;;;;9.80;99.90;;;;;;4978236;28;19952;-63
2023/10/16 18:57:47;;;;;;;;;;;9.80;99.90;;;;;;4982007;28;19926;-62
2023/10/16 19:00:14;;;;;;;;;;;9.80;99.90;;;;;;4979422;28;19910;-59
2023/10/16 19:02:43;;;;;;;;;;;9.80;99.90;;;;;;4978156;28;19914;-59
2023/10/16 19:05:08;;;;;;;;;;;9.80;99.90;;;;;;4978544;28;20005;-62
2023/10/16 19:07:34;;;;;;;;;;;9.80;99.90;;;;;;4978280;28;19960;-64
2023/10/16 19:09:59;;;;;;;;;;;9.80;99.90;;;;;;4978381;28;19910;-64
2023/10/16 19:12:25;;;;;;;;;;;9.70;99.90;;;;;;4978220;28;19910;-64
2023/10/16 19:14:50;;;;;;;;;;;9.70;99.90;;;;;;4978005;28;20369;-64
2023/10/16 19:17:16;;;;;;;;;;;9.70;99.90;;;;;;4978093;28;19997;-65
2023/10/16 19:19:42;;;;;;;;;;;9.60;99.90;;;;;;4978190;28;20005;-65
2023/10/16 19:22:07;;;;;;;;;;;9.60;99.90;;;;;;4978788;28;19925;-65
2023/10/16 19:24:33;;;;;;;;;;;9.50;99.90;;;;;;4979990;28;19910;-65
2023/10/16 19:26:59;;;;;;;;;;;9.60;99.90;;;;;;4978900;28;19910;-65
2023/10/16 19:29:24;;;;;;;;;;;9.60;99.90;;;;;;4978026;28;19910;-64
2023/10/16 19:31:50;;;;;;;;;;;9.50;99.90;;;;;;4977880;28;20049;-64
2023/10/16 19:34:17;;;;;;;;;;;9.50;99.90;;;;;;4978036;28;19952;-64
2023/10/16 19:36:45;;;;;;;;;;;9.50;99.90;;;;;;4978024;28;19933;-64
2023/10/16 19:39:13;;;;;;;;;;;9.50;99.90;;;;;;4977606;28;19914;-64
2023/10/16 19:41:39;;;;;;;;;;;9.40;99.90;;;;;;4977594;28;19980;-65
2023/10/16 19:44:04;;;;;;;;;;;9.40;99.90;;;;;;4977757;28;20409;-63
2023/10/16 19:46:30;;;;;;;;;;;9.40;99.90;;;;;;4977550;28;20001;-63
2023/10/16 19:48:56;;;;;;;;;;;9.40;99.90;;;;;;4977605;28;19911;-65
2023/10/16 19:51:23;;;;;;;;;;;9.30;99.90;;;;;;4977428;28;20281;-64
2023/10/16 19:53:48;;;;;;;;;;;9.40;99.90;;;;;;4977611;28;19914;-64
2023/10/16 19:56:15;;;;;;;;;;;9.30;99.90;;;;;;4977459;28;19957;-63
2023/10/16 19:58:43;;;;;;;;;;;9.30;99.90;;;;;;4977458;28;19991;-63
2023/10/16 20:01:11;;;;;;;;;;;9.30;99.90;;;;;;4975967;28;19914;-63